createdAt,value
2023-02-13T00:02:18.798Z,98.20
2023-02-13T00:04:47.528Z,103.57
2023-02-13T00:07:16.279Z,98.20
2023-02-13T00:09:44.931Z,95.67
2023-02-13T00:12:13.558Z,100.70
2023-02-13T00:14:42.420Z,102.30
2023-02-13T00:17:11.117Z,104.57
2023-02-13T00:19:42.518Z,95.73
2023-02-13T00:22:11.139Z,97.13
2023-02-13T00:24:39.724Z,95.93
2023-02-13T00:27:08.413Z,101.87
2023-02-13T00:29:37.056Z,95.70
2023-02-13T00:32:05.958Z,93.30
2023-02-13T00:34:34.899Z,94.60
2023-02-13T00:37:03.948Z,99.20
2023-02-13T00:39:32.711Z,93.47
2023-02-13T00:42:01.323Z,100.60
2023-02-13T00:44:29.933Z,91.67
2023-02-13T00:46:58.586Z,89.43
2023-02-13T00:49:27.376Z,91.93
2023-02-13T00:51:56.018Z,97.30
2023-02-13T00:54:24.641Z,96.63
2023-02-13T00:56:53.296Z,111.10
2023-02-13T00:59:21.818Z,96.97
2023-02-13T01:01:50.567Z,94.33
2023-02-13T01:04:19.279Z,92.10
2023-02-13T01:06:50.376Z,98.03
2023-02-13T01:09:18.993Z,99.47
2023-02-13T01:11:47.635Z,108.33
2023-02-13T01:14:16.356Z,90.33
2023-02-13T01:16:45.069Z,94.97
2023-02-13T01:19:13.729Z,91.17
2023-02-13T01:21:44.106Z,87.60
2023-02-13T01:24:12.809Z,93.70
2023-02-13T01:26:41.408Z,90.23
2023-02-13T01:29:11.517Z,91.33
2023-02-13T01:31:40.324Z,90.63
2023-02-13T01:34:09.003Z,93.47
2023-02-13T01:36:37.615Z,89.63
2023-02-13T01:39:06.350Z,100.50
2023-02-13T01:41:34.916Z,95.53
2023-02-13T01:44:03.709Z,94.13
2023-02-13T01:46:35.338Z,93.57
2023-02-13T01:49:15.961Z,96.43
2023-02-13T01:51:46.237Z,93.13
2023-02-13T01:54:18.183Z,91.70
2023-02-13T01:56:49.869Z,98.77
2023-02-13T01:59:24.130Z,91.67
2023-02-13T02:01:53.155Z,92.20
2023-02-13T02:04:25.279Z,86.63
2023-02-13T02:07:02.689Z,92.87
2023-02-13T02:09:34.280Z,90.40
2023-02-13T02:12:08.814Z,93.13
2023-02-13T02:14:37.620Z,89.33
2023-02-13T02:17:06.315Z,93.17
2023-02-13T02:19:52.738Z,94.43
2023-02-13T02:22:40.940Z,92.97
2023-02-13T02:25:35.158Z,93.33
2023-02-13T02:28:26.313Z,90.97
2023-02-13T02:31:14.708Z,87.33
2023-02-13T02:33:58.169Z,87.80
2023-02-13T02:36:47.809Z,91.43
2023-02-13T02:39:28.644Z,92.63
2023-02-13T02:42:21.560Z,100.77
2023-02-13T02:45:26.314Z,98.27
2023-02-13T02:48:21.700Z,95.33
2023-02-13T02:51:01.868Z,88.27
2023-02-13T02:53:39.306Z,98.57
2023-02-13T02:56:13.429Z,94.27
2023-02-13T02:59:14.894Z,95.77
2023-02-13T03:02:03.191Z,89.73
2023-02-13T03:05:01.541Z,98.37
2023-02-13T03:07:30.144Z,94.17
2023-02-13T03:10:19.765Z,99.63
2023-02-13T03:13:12.259Z,96.20
2023-02-13T03:16:01.019Z,89.90
2023-02-13T03:18:50.752Z,94.30
2023-02-13T03:21:46.582Z,96.97
2023-02-13T03:24:20.780Z,88.70
2023-02-13T03:26:53.792Z,91.33
2023-02-13T03:29:59.866Z,93.50
2023-02-13T03:32:31.413Z,100.00
2023-02-13T03:35:29.845Z,91.37
2023-02-13T03:38:01.435Z,101.33
2023-02-13T03:41:05.811Z,97.87
2023-02-13T03:43:37.371Z,103.07
2023-02-13T03:46:07.016Z,105.23
2023-02-13T03:48:56.278Z,107.33
2023-02-13T03:51:42.874Z,108.17
2023-02-13T03:54:24.946Z,110.97
2023-02-13T03:57:13.137Z,112.70
2023-02-13T03:59:42.240Z,111.10
2023-02-13T04:02:16.628Z,110.30
2023-02-13T04:04:57.451Z,106.07
2023-02-13T04:07:30.828Z,103.43
2023-02-13T04:10:05.320Z,114.73
2023-02-13T04:12:53.105Z,102.90
2023-02-13T04:15:24.668Z,97.20
2023-02-13T04:18:05.126Z,99.97
2023-02-13T04:20:34.672Z,108.40
2023-02-13T04:23:11.306Z,102.23
2023-02-13T04:25:42.827Z,101.60
2023-02-13T04:28:12.413Z,109.53
2023-02-13T04:30:41.197Z,99.73
2023-02-13T04:33:09.846Z,103.57
2023-02-13T04:35:38.385Z,104.57
2023-02-13T04:38:08.991Z,96.17
2023-02-13T04:40:37.571Z,108.67
2023-02-13T04:43:07.380Z,101.53
2023-02-13T04:45:35.963Z,103.47
2023-02-13T04:48:04.668Z,97.37
2023-02-13T04:50:33.238Z,104.53
2023-02-13T04:53:01.945Z,105.50
2023-02-13T04:55:30.539Z,105.43
2023-02-13T04:57:59.528Z,109.97
2023-02-13T05:00:29.382Z,109.30
2023-02-13T05:03:06.330Z,117.23
2023-02-13T05:05:35.223Z,106.10
2023-02-13T05:08:03.916Z,106.90
2023-02-13T05:10:32.510Z,104.33
2023-02-13T05:13:01.503Z,93.67
2023-02-13T05:15:30.330Z,102.93
2023-02-13T05:17:59.224Z,100.67
2023-02-13T05:20:28.754Z,99.63
2023-02-13T05:23:15.527Z,100.77
2023-02-13T05:25:44.073Z,105.63
2023-02-13T05:28:31.950Z,98.30
2023-02-13T05:31:01.121Z,97.87
2023-02-13T05:33:29.993Z,96.50
2023-02-13T05:35:58.514Z,103.83
2023-02-13T05:38:27.065Z,96.57
2023-02-13T05:40:56.302Z,98.57
2023-02-13T05:43:25.048Z,103.47
2023-02-13T05:45:54.781Z,100.77
2023-02-13T05:48:26.539Z,94.03
2023-02-13T05:50:55.764Z,92.47
2023-02-13T05:53:24.662Z,96.23
2023-02-13T05:55:53.367Z,95.30
2023-02-13T05:58:25.793Z,93.03
2023-02-13T06:00:58.600Z,89.93
2023-02-13T06:03:28.738Z,98.90
2023-02-13T06:05:58.376Z,93.93
2023-02-13T06:08:27.446Z,98.27
2023-02-13T06:10:56.128Z,93.17
2023-02-13T06:13:25.096Z,98.00
2023-02-13T06:15:54.093Z,96.50
2023-02-13T06:18:22.759Z,92.63
2023-02-13T06:20:51.515Z,93.80
2023-02-13T06:23:20.134Z,92.13
2023-02-13T06:25:48.747Z,93.13
2023-02-13T06:28:17.461Z,95.07
2023-02-13T06:30:46.245Z,88.07
2023-02-13T06:33:14.843Z,88.97
2023-02-13T06:35:43.396Z,85.83
2023-02-13T06:38:12.074Z,85.07
2023-02-13T06:40:40.684Z,89.10
2023-02-13T06:43:09.204Z,85.60
2023-02-13T06:45:38.821Z,91.20
2023-02-13T06:48:07.488Z,87.37
2023-02-13T06:50:36.463Z,92.33
2023-02-13T06:53:05.126Z,90.37
2023-02-13T06:55:33.995Z,93.13
2023-02-13T06:58:03.006Z,83.23
2023-02-13T07:00:42.299Z,85.17
2023-02-13T07:03:12.371Z,83.43
2023-02-13T07:05:46.366Z,79.90
2023-02-13T07:08:15.357Z,83.90
2023-02-13T07:10:44.133Z,84.33
2023-02-13T07:13:15.532Z,81.90
2023-02-13T07:15:48.802Z,73.70
2023-02-13T07:18:17.933Z,77.23
2023-02-13T07:20:46.820Z,75.30
2023-02-13T07:23:15.850Z,75.53
2023-02-13T07:25:44.885Z,74.77
2023-02-13T07:28:15.306Z,75.33
2023-02-13T07:30:51.681Z,76.67
2023-02-13T07:33:26.003Z,83.90
2023-02-13T07:35:56.491Z,94.83
2023-02-13T07:38:28.186Z,86.47
2023-02-13T07:41:06.782Z,87.93
2023-02-13T07:43:36.352Z,100.77
2023-02-13T07:46:08.938Z,109.90
2023-02-13T07:48:42.182Z,108.30
2023-02-13T07:51:12.624Z,94.83
2023-02-13T07:54:06.186Z,96.60
2023-02-13T07:56:40.323Z,102.90
2023-02-13T07:59:11.065Z,100.80
2023-02-13T08:01:41.669Z,104.83
2023-02-13T08:07:29.789Z,98.00
2023-02-13T08:10:45.014Z,101.03
2023-02-13T08:13:46.242Z,112.37
2023-02-13T08:16:16.019Z,114.70
2023-02-13T08:21:52.228Z,126.80
2023-02-13T08:27:04.744Z,206.27
2023-02-13T08:32:53.183Z,100.27
2023-02-13T08:35:12.978Z,171.80
2023-02-13T08:37:41.967Z,107.80
2023-02-13T08:40:10.868Z,107.27
2023-02-13T08:42:43.038Z,99.40
2023-02-13T08:45:13.825Z,115.17
2023-02-13T08:47:53.818Z,99.03
2023-02-13T08:50:27.123Z,94.93
2023-02-13T08:53:05.235Z,91.23
2023-02-13T08:58:27.107Z,98.73
2023-02-13T09:00:56.206Z,98.87
2023-02-13T09:03:34.589Z,86.50
2023-02-13T09:06:06.857Z,84.33
2023-02-13T09:08:37.807Z,85.90
2023-02-13T09:11:11.322Z,80.83
2023-02-13T09:13:43.101Z,81.57
2023-02-13T09:16:13.903Z,82.40
2023-02-13T09:18:46.031Z,80.20
2023-02-13T09:21:22.975Z,79.47
2023-02-13T09:23:57.862Z,85.87
2023-02-13T09:26:30.922Z,83.87
2023-02-13T09:28:59.907Z,85.23
2023-02-13T09:31:30.391Z,83.33
2023-02-13T09:34:02.767Z,78.30
2023-02-13T09:36:31.680Z,90.57
2023-02-13T09:39:03.641Z,82.30
2023-02-13T09:41:49.213Z,75.90
2023-02-13T09:44:35.873Z,81.97
2023-02-13T09:47:22.810Z,82.43
2023-02-13T09:49:54.699Z,83.20
2023-02-13T09:59:50.499Z,78.03
2023-02-13T10:02:25.960Z,96.73
2023-02-13T10:05:15.297Z,101.30
2023-02-13T10:14:32.336Z,77.00
2023-02-13T10:17:11.685Z,75.93
2023-02-13T10:19:50.001Z,85.83
2023-02-13T10:22:25.045Z,85.20
2023-02-13T10:25:17.632Z,76.93
2023-02-13T10:27:49.523Z,75.37
2023-02-13T10:30:45.099Z,66.60
2023-02-13T10:33:20.026Z,70.63
2023-02-13T10:36:11.530Z,72.23
2023-02-13T10:38:43.540Z,73.27
2023-02-13T10:41:42.958Z,80.17
2023-02-13T10:44:34.172Z,66.00
2023-02-13T10:47:08.876Z,71.83
2023-02-13T10:49:58.870Z,67.83
2023-02-13T10:52:39.240Z,71.93
2023-02-13T10:55:26.074Z,67.80
2023-02-13T10:58:19.080Z,75.67
2023-02-13T11:03:50.965Z,65.93
2023-02-13T11:06:24.373Z,157.40
2023-02-13T11:08:52.981Z,61.40
2023-02-13T11:11:38.309Z,69.40
2023-02-13T11:14:46.682Z,67.87
2023-02-13T11:17:19.614Z,52.57
2023-02-13T11:19:52.668Z,65.10
2023-02-13T11:22:55.446Z,61.17
2023-02-13T11:25:25.475Z,83.53
2023-02-13T11:27:57.138Z,60.70
2023-02-13T11:30:34.186Z,59.33
2023-02-13T11:36:19.716Z,58.10
2023-02-13T11:38:53.773Z,61.57
2023-02-13T11:41:38.860Z,45.60
2023-02-13T11:44:20.249Z,50.93
2023-02-13T11:46:54.389Z,51.20
2023-02-13T11:49:48.161Z,54.77
2023-02-13T11:52:29.334Z,47.10
2023-02-13T11:55:03.358Z,44.13
2023-02-13T11:57:34.747Z,49.03
2023-02-13T12:00:24.827Z,38.37
2023-02-13T12:02:53.722Z,36.70
2023-02-13T12:05:28.580Z,35.53
2023-02-13T12:08:00.334Z,37.37
2023-02-13T12:10:35.092Z,68.00
2023-02-13T12:13:15.573Z,32.63
2023-02-13T12:15:48.865Z,32.00
2023-02-13T12:18:38.769Z,30.30
2023-02-13T12:21:28.540Z,35.73
2023-02-13T12:24:30.424Z,34.30
2023-02-13T12:27:07.734Z,31.37
2023-02-13T12:29:58.888Z,31.13
2023-02-13T12:32:56.396Z,37.53
2023-02-13T12:35:44.255Z,27.47
2023-02-13T12:38:15.925Z,22.03
2023-02-13T12:41:03.993Z,25.60
2023-02-13T12:43:56.385Z,28.83
2023-02-13T12:46:39.863Z,24.80
2023-02-13T12:49:28.672Z,19.43
2023-02-13T12:52:18.548Z,24.13
2023-02-13T12:54:54.705Z,20.90
2023-02-13T12:57:42.993Z,22.23
2023-02-13T13:00:20.272Z,24.70
2023-02-13T13:02:57.234Z,23.23
2023-02-13T13:05:35.391Z,29.93
2023-02-13T13:08:16.672Z,26.30
2023-02-13T13:11:13.111Z,22.10
2023-02-13T13:14:01.062Z,25.27
2023-02-13T13:16:53.804Z,35.53
2023-02-13T13:19:40.228Z,23.80
2023-02-13T13:22:15.930Z,29.03
2023-02-13T13:25:02.577Z,28.50
2023-02-13T13:27:34.154Z,33.70
2023-02-13T13:30:09.273Z,58.87
2023-02-13T13:32:44.572Z,25.07
2023-02-13T13:35:16.252Z,25.50
2023-02-13T13:38:09.088Z,25.67
2023-02-13T13:40:52.877Z,28.90
2023-02-13T13:43:45.347Z,24.63
2023-02-13T13:46:23.022Z,26.47
2023-02-13T13:49:03.479Z,26.50
2023-02-13T13:51:40.948Z,25.13
2023-02-13T13:54:12.539Z,31.27
2023-02-13T13:56:59.987Z,27.20
2023-02-13T13:59:41.510Z,23.27
2023-02-13T14:02:21.938Z,22.93
2023-02-13T14:05:03.111Z,27.13
2023-02-13T14:07:41.558Z,24.47
2023-02-13T14:10:28.265Z,27.90
2023-02-13T14:13:04.116Z,24.63
2023-02-13T14:15:42.554Z,27.17
2023-02-13T14:18:17.283Z,24.80
2023-02-13T14:20:51.696Z,25.63
2023-02-13T14:23:37.946Z,29.33
2023-02-13T14:26:18.166Z,27.53
2023-02-13T14:28:52.410Z,29.83
2023-02-13T14:31:39.503Z,27.27
2023-02-13T14:34:18.323Z,26.93
2023-02-13T14:36:52.824Z,30.13
2023-02-13T14:39:37.252Z,28.87
2023-02-13T14:42:08.863Z,23.87
2023-02-13T14:44:49.398Z,28.10
2023-02-13T14:47:45.052Z,24.80
2023-02-13T14:50:23.023Z,33.30
2023-02-13T14:52:53.164Z,30.57
2023-02-13T14:55:36.894Z,27.90
2023-02-13T14:58:23.523Z,29.77
2023-02-13T15:00:58.402Z,28.80
2023-02-13T15:03:39.001Z,27.93
2023-02-13T15:06:10.682Z,28.10
2023-02-13T15:08:49.026Z,28.37
2023-02-13T15:11:39.065Z,28.40
2023-02-13T15:14:27.188Z,26.50
2023-02-13T15:17:16.951Z,29.77
2023-02-13T15:19:48.757Z,25.43
2023-02-13T15:22:20.441Z,26.87
2023-02-13T15:24:57.952Z,27.73
2023-02-13T15:27:32.908Z,31.67
2023-02-13T15:30:04.714Z,23.33
2023-02-13T15:32:37.925Z,32.00
2023-02-13T15:35:18.375Z,24.77
2023-02-13T15:37:46.935Z,27.30
2023-02-13T15:40:17.588Z,28.60
2023-02-13T15:42:47.627Z,29.50
2023-02-13T15:45:19.235Z,23.37
2023-02-13T15:50:49.411Z,30.40
2023-02-13T15:53:21.874Z,27.87
2023-02-13T15:59:31.673Z,26.57
2023-02-13T16:02:06.722Z,32.43
2023-02-13T16:04:42.712Z,28.83
2023-02-13T16:07:14.324Z,29.67
2023-02-13T16:09:45.323Z,30.17
2023-02-13T16:12:23.036Z,32.07
2023-02-13T16:14:57.147Z,35.73
2023-02-13T16:17:30.514Z,33.40
2023-02-13T16:20:07.703Z,53.33
2023-02-13T16:22:48.369Z,31.60
2023-02-13T16:25:35.340Z,31.07
2023-02-13T16:28:07.121Z,32.73
2023-02-13T16:30:45.479Z,31.50
2023-02-13T16:33:19.826Z,31.73
2023-02-13T16:35:57.849Z,33.70
2023-02-13T16:38:35.301Z,36.93
2023-02-13T16:41:07.002Z,32.90
2023-02-13T16:43:59.052Z,35.23
2023-02-13T16:46:42.677Z,39.17
2023-02-13T16:49:18.364Z,42.03
2023-02-13T16:51:53.245Z,41.17
2023-02-13T16:54:24.904Z,43.73
2023-02-13T16:56:56.796Z,38.93
2023-02-13T16:59:44.793Z,46.77
2023-02-13T17:02:37.434Z,41.00
2023-02-13T17:05:18.119Z,44.77
2023-02-13T17:07:49.176Z,41.60
2023-02-13T17:10:31.329Z,42.77
2023-02-13T17:13:03.065Z,44.93
2023-02-13T17:15:38.684Z,36.37
2023-02-13T17:18:07.965Z,39.13
2023-02-13T17:20:45.924Z,36.87
2023-02-13T17:23:17.974Z,47.43
2023-02-13T17:25:50.068Z,41.33
2023-02-13T17:28:22.087Z,35.40
2023-02-13T17:30:53.305Z,37.43
2023-02-13T17:33:27.790Z,39.80
2023-02-13T17:36:22.614Z,42.37
2023-02-13T17:41:40.452Z,40.30
2023-02-13T17:44:22.501Z,40.17
2023-02-13T17:47:14.409Z,38.23
2023-02-13T17:50:08.857Z,46.97
2023-02-13T17:52:32.546Z,43.03
2023-02-13T17:55:03.045Z,52.93
2023-02-13T17:57:31.976Z,47.87
2023-02-13T18:00:02.952Z,42.20
2023-02-13T18:08:54.379Z,43.90
2023-02-13T18:11:23.348Z,42.10
2023-02-13T18:13:52.268Z,50.87
2023-02-13T18:16:22.705Z,52.90
2023-02-13T18:18:51.682Z,47.37
2023-02-13T18:21:30.386Z,46.43
2023-02-13T18:24:02.184Z,62.33
2023-02-13T18:26:32.608Z,47.37
2023-02-13T18:29:02.533Z,46.43
2023-02-13T18:31:40.784Z,42.00
2023-02-13T18:34:09.490Z,44.23
2023-02-13T18:36:40.067Z,57.53
2023-02-13T18:39:08.871Z,98.97
2023-02-13T18:41:37.465Z,43.60
2023-02-13T18:44:06.977Z,48.23
2023-02-13T18:46:37.115Z,174.13
2023-02-13T18:49:06.119Z,45.50
2023-02-13T18:51:37.898Z,45.80
2023-02-13T18:54:06.649Z,43.23
2023-02-13T18:56:36.880Z,40.27
2023-02-13T18:59:08.463Z,42.87
2023-02-13T19:01:37.484Z,96.47
2023-02-13T19:04:07.138Z,222.43
2023-02-13T19:06:35.965Z,76.63
2023-02-13T19:09:05.847Z,42.67
2023-02-13T19:11:37.903Z,36.13
2023-02-13T19:14:07.684Z,37.27
2023-02-13T19:16:43.334Z,42.00
2023-02-13T19:19:12.598Z,41.30
2023-02-13T19:21:49.827Z,36.10
2023-02-13T19:24:18.752Z,36.40
2023-02-13T19:26:49.094Z,38.27
2023-02-13T19:29:17.823Z,41.57
2023-02-13T19:31:46.702Z,36.37
2023-02-13T19:34:15.513Z,32.17
2023-02-13T19:36:44.261Z,37.40
2023-02-13T19:39:15.138Z,92.57
2023-02-13T19:41:45.276Z,33.00
2023-02-13T19:44:15.709Z,39.03
2023-02-13T19:46:44.458Z,31.07
2023-02-13T19:49:13.210Z,34.10
2023-02-13T19:51:42.536Z,33.90
2023-02-13T19:54:13.092Z,33.37
2023-02-13T19:56:41.916Z,38.70
2023-02-13T19:59:13.692Z,35.23
2023-02-13T20:01:45.899Z,34.33
2023-02-13T20:04:17.716Z,37.00
2023-02-13T20:06:49.111Z,33.80
2023-02-13T20:09:17.761Z,38.35
2023-02-13T20:11:46.510Z,92.97
2023-02-13T20:14:15.611Z,48.27
2023-02-13T20:16:48.255Z,38.10
2023-02-13T20:19:17.399Z,33.43
2023-02-13T20:21:49.572Z,32.33
2023-02-13T20:24:24.082Z,34.40
2023-02-13T20:26:58.933Z,41.57
2023-02-13T20:29:29.496Z,31.33
2023-02-13T20:31:59.598Z,32.93
2023-02-13T20:34:37.620Z,29.10
2023-02-13T20:37:00.131Z,34.37
2023-02-13T20:39:30.126Z,37.13
2023-02-13T20:41:58.799Z,23.77
2023-02-13T20:44:29.159Z,29.80
2023-02-13T20:46:59.586Z,29.07
2023-02-13T20:49:28.283Z,30.03
2023-02-13T20:51:56.840Z,132.90
2023-02-13T20:54:25.508Z,31.47
2023-02-13T20:56:54.427Z,34.47
2023-02-13T20:59:33.590Z,36.13
2023-02-13T21:02:04.112Z,32.37
2023-02-13T21:04:34.553Z,302.97
2023-02-13T21:07:09.010Z,36.07
2023-02-13T21:09:39.112Z,34.17
2023-02-13T21:12:08.185Z,57.23
2023-02-13T21:14:41.660Z,39.30
2023-02-13T21:17:10.609Z,105.73
2023-02-13T21:19:39.541Z,36.33
2023-02-13T21:22:16.828Z,39.88
2023-02-13T21:24:46.725Z,28.23
2023-02-13T21:27:15.297Z,31.33
2023-02-13T21:29:43.957Z,33.83
2023-02-13T21:32:12.662Z,31.20
2023-02-13T21:34:41.436Z,27.87
2023-02-13T21:37:10.055Z,27.43
2023-02-13T21:39:39.666Z,32.77
2023-02-13T21:42:08.679Z,31.10
2023-02-13T21:44:37.300Z,36.23
2023-02-13T21:47:07.300Z,31.00
2023-02-13T21:49:36.757Z,31.20
2023-02-13T21:52:05.678Z,34.87
2023-02-13T21:54:34.619Z,30.40
2023-02-13T21:57:05.798Z,30.53
2023-02-13T21:59:39.633Z,31.37
2023-02-13T22:02:08.745Z,28.53
2023-02-13T22:04:37.598Z,32.47
2023-02-13T22:10:35.426Z,30.73
2023-02-13T22:13:04.614Z,30.57
2023-02-13T22:15:33.472Z,30.27
2023-02-13T22:18:02.244Z,30.17
2023-02-13T22:20:31.067Z,29.90
2023-02-13T22:23:01.317Z,29.87
2023-02-13T22:25:29.991Z,32.97
2023-02-13T22:28:00.795Z,32.27
2023-02-13T22:30:32.907Z,30.37
2023-02-13T22:33:07.396Z,32.23
2023-02-13T22:35:41.289Z,28.53
2023-02-13T22:38:13.591Z,32.67
2023-02-13T22:40:42.411Z,30.47
2023-02-13T22:43:13.638Z,31.20
2023-02-13T22:45:42.313Z,35.00
2023-02-13T22:48:10.929Z,36.50
2023-02-13T22:50:39.525Z,28.70
2023-02-13T22:53:08.251Z,29.33
2023-02-13T22:55:36.832Z,36.57
2023-02-13T22:58:05.498Z,30.60
2023-02-13T23:00:35.639Z,29.80
2023-02-13T23:03:04.418Z,32.27
2023-02-13T23:05:33.067Z,30.80
2023-02-13T23:08:01.670Z,34.27
2023-02-13T23:10:30.364Z,30.53
2023-02-13T23:12:58.982Z,32.23
2023-02-13T23:15:29.702Z,30.47
2023-02-13T23:18:13.027Z,30.47
2023-02-13T23:20:43.824Z,31.90
2023-02-13T23:23:13.347Z,34.37
2023-02-13T23:25:41.960Z,32.93
2023-02-13T23:28:10.634Z,33.67
2023-02-13T23:30:40.591Z,32.63
2023-02-13T23:33:09.286Z,33.67
2023-02-13T23:35:37.827Z,32.83
2023-02-13T23:38:06.478Z,35.20
2023-02-13T23:40:35.149Z,31.73
2023-02-13T23:43:03.827Z,36.37
2023-02-13T23:45:35.518Z,34.73
2023-02-13T23:48:04.189Z,36.57
2023-02-13T23:50:33.299Z,33.70
2023-02-13T23:53:02.024Z,30.80
2023-02-13T23:55:30.552Z,34.30
2023-02-13T23:57:59.332Z,27.97
